Time;durP1;ratioP1;P1;durP2;ratioP2;P2;SDS_P1;SDS_P2;PMS_P1;PMS_P2;Temp;Humidity;BMP_temperature;BMP_pressure;BME280_temperature;BME280_humidity;BME280_pressure;Samples;Min_cycle;Max_cycle;Signal;HPM_P1;HPM_P2
2021/07/08 00:00:51;;;;;;;;;;;;;;;-148.22;100.00;58358.63;4992927;28;1312;-75
2021/07/08 00:03:26;;;;;;;;;;;;;;;-148.22;100.00;58358.63;4977877;28;1244;-76
2021/07/08 00:05:53;;;;;;;;;;;;;;;-148.22;100.00;58358.63;4992865;28;1137;-75
2021/07/08 00:08:20;;;;;;;;;;;;;;;-148.22;100.00;58358.63;4976589;28;1331;-75
2021/07/08 00:10:47;;;;;;;;;;;;;;;-148.22;100.00;58358.63;4989317;28;1957;-75
2021/07/08 00:13:16;;;;;;;;;;;;;;;-148.22;100.00;58358.63;4997047;28;1429;-75
2021/07/08 00:15:43;;;;;;;;;;;;;;;-148.22;100.00;58358.63;4996011;28;1181;-75
2021/07/08 00:18:09;;;;;;;;;;;;;;;-148.22;100.00;58358.63;4995849;28;1194;-75
2021/07/08 00:20:43;;;;;;;;;;;;;;;-148.22;100.00;58358.63;4995854;28;1310;-75
2021/07/08 00:23:17;;;;;;;;;;;;;;;-148.22;100.00;58358.63;4995815;28;1340;-75
2021/07/08 00:25:44;;;;;;;;;;;;;;;-148.22;100.00;58358.63;4995697;28;1172;-76
2021/07/08 00:28:14;;;;;;;;;;;;;;;-148.22;100.00;58358.63;4995722;28;1302;-75
2021/07/08 00:30:41;;;;;;;;;;;;;;;-148.22;100.00;58358.63;4996442;28;1971;-75
2021/07/08 00:33:10;;;;;;;;;;;;;;;-148.22;100.00;58358.63;4995697;28;1307;-75
2021/07/08 00:35:39;;;;;;;;;;;;;;;-148.22;100.00;58358.63;4996876;28;974;-75
2021/07/08 00:38:21;;;;;;;;;;;;;;;-148.22;100.00;58358.63;4978971;28;1344;-75
2021/07/08 00:40:48;;;;;;;;;;;;;;;-148.22;100.00;58358.63;4976824;28;914;-75
2021/07/08 00:43:13;;;;;;;;;;;;;;;-148.22;100.00;58358.63;4959979;28;1261;-75
2021/07/08 00:45:40;;;;;;;;;;;;;;;-148.22;100.00;58358.63;4977245;28;879;-75
2021/07/08 00:48:09;;;;;;;;;;;;;;;-148.22;100.00;58358.63;4959796;28;1157;-75
2021/07/08 00:51:03;;;;;;;;;;;;;;;-148.22;100.00;58358.63;4959793;28;1894;-75
2021/07/08 00:53:41;;;;;;;;;;;;;;;-148.22;100.00;58358.63;4920746;29;1281;-75
2021/07/08 00:56:09;;;;;;;;;;;;;;;-148.22;100.00;58358.63;4919563;29;1174;-75
2021/07/08 00:58:35;;;;;;;;;;;;;;;-148.22;100.00;58358.63;4920046;29;1139;-76
2021/07/08 01:01:09;;;;;;;;;;;;;;;-148.22;100.00;58358.63;4920714;29;1361;-76
2021/07/08 01:03:35;;;;;;;;;;;;;;;-148.22;100.00;58358.63;4920561;29;1277;-76
2021/07/08 01:06:01;;;;;;;;;;;;;;;-148.22;100.00;58358.63;4920645;29;1251;-76
2021/07/08 01:08:26;;;;;;;;;;;;;;;-148.22;100.00;58358.63;4936498;29;785;-77
2021/07/08 01:10:51;;;;;;;;;;;;;;;-148.22;100.00;58358.63;4936207;29;1946;-76
2021/07/08 01:13:19;;;;;;;;;;;;;;;-148.22;100.00;58358.63;4935722;29;911;-76
2021/07/08 01:15:44;;;;;;;;;;;;;;;-148.22;100.00;58358.63;4936431;29;777;-76
2021/07/08 01:18:11;;;;;;;;;;;;;;;-148.22;100.00;58358.63;4936225;29;1051;-76
2021/07/08 01:20:39;;;;;;;;;;;;;;;-148.22;100.00;58358.63;4920413;29;1168;-76
2021/07/08 01:23:06;;;;;;;;;;;;;;;-148.22;100.00;58358.63;4936348;29;1095;-76
2021/07/08 01:25:44;;;;;;;;;;;;;;;-148.22;100.00;58358.63;4920462;29;1199;-77
2021/07/08 01:28:11;;;;;;;;;;;;;;;-148.22;100.00;58358.63;4920304;29;1284;-76
2021/07/08 01:30:36;;;;;;;;;;;;;;;-148.22;100.00;58358.63;4962467;28;1978;-77
2021/07/08 01:33:02;;;;;;;;;;;;;;;-148.22;100.00;58358.63;4959409;28;1428;-76
2021/07/08 01:35:29;;;;;;;;;;;;;;;-148.22;100.00;58358.63;4976642;28;1028;-76
2021/07/08 01:37:54;;;;;;;;;;;;;;;-148.22;100.00;58358.63;4959268;28;1285;-76
2021/07/08 01:40:21;;;;;;;;;;;;;;;-148.22;100.00;58358.63;4959324;28;1130;-77
2021/07/08 01:42:47;;;;;;;;;;;;;;;-148.22;100.00;58358.63;4976596;28;846;-77
2021/07/08 01:45:14;;;;;;;;;;;;;;;-148.22;100.00;58358.63;4977108;28;978;-77
2021/07/08 01:47:42;;;;;;;;;;;;;;;-148.22;100.00;58358.63;4996065;28;804;-77
2021/07/08 01:50:11;;;;;;;;;;;;;;;-148.22;100.00;58358.63;4994631;28;1878;-76
2021/07/08 01:52:38;;;;;;;;;;;;;;;-148.22;100.00;58358.63;4978399;28;1234;-76
2021/07/08 01:55:04;;;;;;;;;;;;;;;-148.22;100.00;58358.63;4992755;28;1200;-77
2021/07/08 01:57:51;;;;;;;;;;;;;;;-148.22;100.00;58358.63;4994681;28;1291;-76
2021/07/08 02:00:30;;;;;;;;;;;;;;;-148.22;100.00;58358.63;4995872;28;1224;-76
2021/07/08 02:02:57;;;;;;;;;;;;;;;-148.22;100.00;58358.63;4995909;28;834;-76
2021/07/08 02:05:29;;;;;;;;;;;;;;;-148.22;100.00;58358.63;4978504;28;1277;-77
2021/07/08 02:07:55;;;;;;;;;;;;;;;-148.22;100.00;58358.63;4994703;28;1184;-76
2021/07/08 02:10:24;;;;;;;;;;;;;;;-148.22;100.00;58358.63;4976198;28;1946;-76
2021/07/08 02:12:50;;;;;;;;;;;;;;;-148.22;100.00;58358.63;4999478;28;1056;-76
2021/07/08 02:15:25;;;;;;;;;;;;;;;-148.22;100.00;58358.63;4999520;28;896;-76
2021/07/08 02:17:59;;;;;;;;;;;;;;;-148.22;100.00;58358.63;4998252;28;1276;-76
2021/07/08 02:20:25;;;;;;;;;;;;;;;-148.22;100.00;58358.63;4999490;28;866;-76
2021/07/08 02:22:53;;;;;;;;;;;;;;;-148.22;100.00;58358.63;4997966;28;1285;-76
2021/07/08 02:25:19;;;;;;;;;;;;;;;-148.22;100.00;58358.63;4999290;28;1056;-76
2021/07/08 02:27:47;;;;;;;;;;;;;;;-148.22;100.00;58358.63;4997941;28;1189;-76
2021/07/08 02:30:14;;;;;;;;;;;;;;;-148.22;100.00;58358.63;4999127;28;1914;-76
2021/07/08 02:32:41;;;;;;;;;;;;;;;-148.22;100.00;58358.63;4997824;28;1215;-76
2021/07/08 02:35:07;;;;;;;;;;;;;;;-148.22;100.00;58358.63;4999181;28;977;-77
2021/07/08 02:37:35;;;;;;;;;;;;;;;-148.22;100.00;58358.63;4997842;28;1201;-76
2021/07/08 02:40:04;;;;;;;;;;;;;;;-148.22;100.00;58358.63;4999129;28;835;-78
2021/07/08 02:42:36;;;;;;;;;;;;;;;-148.22;100.00;58358.63;4997978;28;1246;-76
2021/07/08 02:45:04;;;;;;;;;;;;;;;-148.22;100.00;58358.63;4999055;28;763;-76
2021/07/08 02:47:35;;;;;;;;;;;;;;;-148.22;100.00;58358.63;4997523;28;1455;-76
2021/07/08 02:50:02;;;;;;;;;;;;;;;-148.22;100.00;58358.63;4998730;28;1948;-76
2021/07/08 02:52:30;;;;;;;;;;;;;;;-148.22;100.00;58358.63;4997698;28;1335;-76
2021/07/08 02:55:05;;;;;;;;;;;;;;;-148.22;100.00;58358.63;4981366;28;1310;-76
2021/07/08 02:57:31;;;;;;;;;;;;;;;-148.22;100.00;58358.63;4998566;28;1037;-76
2021/07/08 02:59:58;;;;;;;;;;;;;;;-148.22;100.00;58358.63;4998901;28;903;-76
2021/07/08 03:02:25;;;;;;;;;;;;;;;-148.22;100.00;58358.63;4998641;28;990;-76
2021/07/08 03:04:56;;;;;;;;;;;;;;;-148.22;100.00;58358.63;4997321;28;1316;-76
2021/07/08 03:07:22;;;;;;;;;;;;;;;-148.22;100.00;58358.63;4998565;28;808;-76
2021/07/08 03:09:48;;;;;;;;;;;;;;;-148.22;100.00;58358.63;4997316;28;1887;-77
2021/07/08 03:12:13;;;;;;;;;;;;;;;-148.22;100.00;58358.63;4980728;28;1387;-76
2021/07/08 03:14:48;;;;;;;;;;;;;;;-148.22;100.00;58358.63;4998270;28;891;-76
2021/07/08 03:17:15;;;;;;;;;;;;;;;-148.22;100.00;58358.63;4997080;28;1163;-76
2021/07/08 03:19:49;;;;;;;;;;;;;;;-148.22;100.00;58358.63;4994961;28;1181;-76
2021/07/08 03:22:22;;;;;;;;;;;;;;;-148.22;100.00;58358.63;4963593;28;1247;-76
2021/07/08 03:24:54;;;;;;;;;;;;;;;-148.22;100.00;58358.63;4976739;28;1198;-76
2021/07/08 03:27:19;;;;;;;;;;;;;;;-148.22;100.00;58358.63;4978000;28;1105;-77
2021/07/08 03:29:50;;;;;;;;;;;;;;;-148.22;100.00;58358.63;4964274;28;1974;-76
2021/07/08 03:32:18;;;;;;;;;;;;;;;-148.22;100.00;58358.63;4980513;28;1215;-76
2021/07/08 03:34:44;;;;;;;;;;;;;;;-148.22;100.00;58358.63;4980526;28;1406;-76
2021/07/08 03:37:11;;;;;;;;;;;;;;;-148.22;100.00;58358.63;4998042;28;756;-76
2021/07/08 03:39:39;;;;;;;;;;;;;;;-148.22;100.00;58358.63;4996562;28;1177;-76
2021/07/08 03:42:24;;;;;;;;;;;;;;;-148.22;100.00;58358.63;4980424;28;1233;-76
2021/07/08 03:44:51;;;;;;;;;;;;;;;-148.22;100.00;58358.63;4997878;28;1153;-76
2021/07/08 03:47:22;;;;;;;;;;;;;;;-148.22;100.00;58358.63;4996479;28;1307;-76
2021/07/08 03:49:48;;;;;;;;;;;;;;;-148.22;100.00;58358.63;4997619;28;1945;-77
2021/07/08 03:52:13;;;;;;;;;;;;;;;-148.22;100.00;58358.63;4996427;28;1345;-76
2021/07/08 03:54:39;;;;;;;;;;;;;;;-148.22;100.00;58358.63;4980235;28;1217;-76
2021/07/08 03:57:04;;;;;;;;;;;;;;;-148.22;100.00;58358.63;4990750;28;938;-76
2021/07/08 03:59:32;;;;;;;;;;;;;;;-148.22;100.00;58358.63;4960080;28;1297;-77
2021/07/08 04:01:59;;;;;;;;;;;;;;;-148.22;100.00;58358.63;4997337;28;1417;-80
2021/07/08 04:04:38;;;;;;;;;;;;;;;-148.22;100.00;58358.63;4996457;28;1177;-80
2021/07/08 04:07:11;;;;;;;;;;;;;;;-148.22;100.00;58358.63;4996310;28;1181;-80
2021/07/08 04:09:37;;;;;;;;;;;;;;;-148.22;100.00;58358.63;4997513;28;1910;-80
2021/07/08 04:12:02;;;;;;;;;;;;;;;-148.22;100.00;58358.63;4993029;28;1323;-80
2021/07/08 04:14:30;;;;;;;;;;;;;;;-148.22;100.00;58358.63;4993096;28;1177;-80
2021/07/08 04:17:04;;;;;;;;;;;;;;;-148.22;100.00;58358.63;4978130;28;1002;-80
2021/07/08 04:19:45;;;;;;;;;;;;;;;-148.22;100.00;58358.63;4977969;28;787;-80
2021/07/08 04:22:18;;;;;;;;;;;;;;;-148.22;100.00;58358.63;4976731;28;1412;-80
2021/07/08 04:24:45;;;;;;;;;;;;;;;-148.22;100.00;58358.63;4992922;28;1173;-80
2021/07/08 04:27:35;;;;;;;;;;;;;;;-148.22;100.00;58358.63;4992815;28;1196;-80
2021/07/08 04:30:07;;;;;;;;;;;;;;;-148.22;100.00;58358.63;4992532;28;1956;-80
2021/07/08 04:32:32;;;;;;;;;;;;;;;-148.22;100.00;58358.63;4956615;28;1338;-81
2021/07/08 04:35:10;;;;;;;;;;;;;;;-148.22;100.00;58358.63;4956414;28;1174;-80
2021/07/08 04:38:01;;;;;;;;;;;;;;;-148.22;100.00;58358.63;4973072;28;1431;-80
2021/07/08 04:40:46;;;;;;;;;;;;;;;-148.22;100.00;58358.63;4899213;29;963;-80
2021/07/08 04:43:12;;;;;;;;;;;;;;;-148.22;100.00;58358.63;4883625;29;1289;-80
2021/07/08 04:45:48;;;;;;;;;;;;;;;-148.22;100.00;58358.63;4899026;29;933;-80
2021/07/08 04:48:14;;;;;;;;;;;;;;;-148.22;100.00;58358.63;4899065;29;837;-80
2021/07/08 04:50:41;;;;;;;;;;;;;;;-148.22;100.00;58358.63;4883420;29;1887;-80
2021/07/08 04:53:07;;;;;;;;;;;;;;;-148.22;100.00;58358.63;4898948;29;1159;-80
2021/07/08 04:55:34;;;;;;;;;;;;;;;-148.22;100.00;58358.63;4898947;29;820;-80
2021/07/08 04:58:01;;;;;;;;;;;;;;;-148.22;100.00;58358.63;4898970;29;1089;-80
2021/07/08 05:00:27;;;;;;;;;;;;;;;-148.22;100.00;58358.63;4898939;29;840;-80
2021/07/08 05:02:54;;;;;;;;;;;;;;;-148.22;100.00;58358.63;4883276;29;1187;-80
2021/07/08 05:05:20;;;;;;;;;;;;;;;-148.22;100.00;58358.63;4898698;29;1024;-80
2021/07/08 05:07:48;;;;;;;;;;;;;;;-148.22;100.00;58358.63;4898815;29;796;-81
2021/07/08 05:10:15;;;;;;;;;;;;;;;-148.22;100.00;58358.63;4898748;29;1946;-80
2021/07/08 05:12:40;;;;;;;;;;;;;;;-148.22;100.00;58358.63;4883026;29;1206;-80
2021/07/08 05:15:15;;;;;;;;;;;;;;;-148.22;100.00;58358.63;4883180;29;1243;-80
2021/07/08 05:17:41;;;;;;;;;;;;;;;-148.22;100.00;58358.63;4939809;29;919;-80
2021/07/08 05:20:06;;;;;;;;;;;;;;;-148.22;100.00;58358.63;4956501;29;1193;-80
2021/07/08 05:22:36;;;;;;;;;;;;;;;-148.22;100.00;58358.63;4956414;29;1224;-80
2021/07/08 05:25:04;;;;;;;;;;;;;;;-148.22;100.00;58358.63;4956509;29;1275;-80
2021/07/08 05:27:54;;;;;;;;;;;;;;;-148.22;100.00;58358.63;4956484;29;1302;-80
2021/07/08 05:30:20;;;;;;;;;;;;;;;-148.22;100.00;58358.63;4956318;29;1899;-80
2021/07/08 05:32:57;;;;;;;;;;;;;;;-148.22;100.00;58358.63;4956325;29;1421;-82
2021/07/08 05:35:42;;;;;;;;;;;;;;;-148.22;100.00;58358.63;4957666;29;851;-81
2021/07/08 05:38:21;;;;;;;;;;;;;;;-148.22;100.00;58358.63;4956320;29;1152;-81
2021/07/08 05:40:47;;;;;;;;;;;;;;;-148.22;100.00;58358.63;4956246;29;1284;-80
2021/07/08 05:43:19;;;;;;;;;;;;;;;-148.22;100.00;58358.63;4956199;29;1268;-81
2021/07/08 05:45:46;;;;;;;;;;;;;;;-148.22;100.00;58358.63;4975682;28;1332;-80
2021/07/08 05:48:40;;;;;;;;;;;;;;;-148.22;100.00;58358.63;4960258;29;1371;-80
2021/07/08 05:51:06;;;;;;;;;;;;;;;-148.22;100.00;58358.63;4902073;29;1880;-81
2021/07/08 05:53:42;;;;;;;;;;;;;;;-148.22;100.00;58358.63;4886786;29;1300;-80
2021/07/08 05:56:08;;;;;;;;;;;;;;;-148.22;100.00;58358.63;4886454;29;1178;-80
2021/07/08 05:58:34;;;;;;;;;;;;;;;-148.22;100.00;58358.63;4886570;29;1171;-80
2021/07/08 06:01:09;;;;;;;;;;;;;;;-148.22;100.00;58358.63;4901967;29;1386;-81
2021/07/08 06:03:53;;;;;;;;;;;;;;;-148.22;100.00;58358.63;4886260;29;1327;-81
2021/07/08 06:06:24;;;;;;;;;;;;;;;-148.22;100.00;58358.63;4885978;29;1466;-80
2021/07/08 06:08:51;;;;;;;;;;;;;;;-148.22;100.00;58358.63;4901977;29;1231;-81
2021/07/08 06:11:16;;;;;;;;;;;;;;;-148.22;100.00;58358.63;4901034;29;1890;-80
2021/07/08 06:13:44;;;;;;;;;;;;;;;-148.22;100.00;58358.63;4886166;29;1187;-81
2021/07/08 06:16:10;;;;;;;;;;;;;;;-148.22;100.00;58358.63;4886157;29;1343;-82
2021/07/08 06:19:08;;;;;;;;;;;;;;;-148.22;100.00;58358.63;4886336;29;1356;-82
2021/07/08 06:21:34;;;;;;;;;;;;;;;-148.22;100.00;58358.63;4848814;29;1173;-81
2021/07/08 06:24:00;;;;;;;;;;;;;;;-148.22;100.00;58358.63;4864577;29;939;-83
2021/07/08 06:26:41;;;;;;;;;;;;;;;-148.22;100.00;58358.63;4864602;29;1255;-84
2021/07/08 06:29:08;;;;;;;;;;;;;;;-148.22;100.00;58358.63;4923708;29;1335;-84
2021/07/08 06:31:35;;;;;;;;;;;;;;;-148.22;100.00;58358.63;4939181;29;1366;-83
2021/07/08 06:34:18;;;;;;;;;;;;;;;-148.22;100.00;58358.63;4939354;29;789;-83
2021/07/08 06:37:08;;;;;;;;;;;;;;;-148.22;100.00;58358.63;4939433;29;1071;-84
2021/07/08 06:40:02;;;;;;;;;;;;;;;-148.22;100.00;58358.63;4923080;29;1501;-83
2021/07/08 06:42:28;;;;;;;;;;;;;;;-148.22;100.00;58358.63;4923421;29;1359;-82
2021/07/08 06:44:53;;;;;;;;;;;;;;;-148.22;100.00;58358.63;4923411;29;1163;-83
2021/07/08 06:47:20;;;;;;;;;;;;;;;-148.22;100.00;58358.63;4922669;29;1270;-83
2021/07/08 06:49:46;;;;;;;;;;;;;;;-148.22;100.00;58358.63;4923065;29;1890;-83
2021/07/08 06:52:12;;;;;;;;;;;;;;;-148.22;100.00;58358.63;4922963;29;1557;-83
2021/07/08 06:54:55;;;;;;;;;;;;;;;-148.22;100.00;58358.63;4923085;29;1179;-83
2021/07/08 06:57:30;;;;;;;;;;;;;;;-148.22;100.00;58358.63;4942169;29;1541;-84
2021/07/08 06:59:55;;;;;;;;;;;;;;;-148.22;100.00;58358.63;4959165;29;1458;-84
2021/07/08 07:02:30;;;;;;;;;;;;;;;-148.22;100.00;58358.63;4959260;29;1181;-84
2021/07/08 07:05:02;;;;;;;;;;;;;;;-148.22;100.00;58358.63;4958909;29;1291;-83
2021/07/08 07:07:30;;;;;;;;;;;;;;;-148.22;100.00;58358.63;4959959;28;1005;-84
2021/07/08 07:09:56;;;;;;;;;;;;;;;-148.22;100.00;58358.63;4958324;29;1891;-87
2021/07/08 07:12:21;;;;;;;;;;;;;;;-148.22;100.00;58358.63;4967798;28;1286;-85
2021/07/08 07:15:20;;;;;;;;;;;;;;;-148.22;100.00;58358.63;4978044;28;1216;-83
2021/07/08 07:17:49;;;;;;;;;;;;;;;-148.22;100.00;58358.63;4885150;29;1286;-83
2021/07/08 07:20:17;;;;;;;;;;;;;;;-148.22;100.00;58358.63;4900598;29;943;-83
2021/07/08 07:22:47;;;;;;;;;;;;;;;-148.22;100.00;58358.63;4884960;29;1191;-82
2021/07/08 07:25:16;;;;;;;;;;;;;;;-148.22;100.00;58358.63;4900838;29;855;-83
2021/07/08 07:28:00;;;;;;;;;;;;;;;-148.22;100.00;58358.63;4884890;29;1173;-83
2021/07/08 07:30:27;;;;;;;;;;;;;;;-148.22;100.00;58358.63;4884647;29;1918;-83
2021/07/08 07:32:55;;;;;;;;;;;;;;;-148.22;100.00;58358.63;4884972;29;1286;-84
2021/07/08 07:35:21;;;;;;;;;;;;;;;-148.22;100.00;58358.63;4884634;29;1205;-84
2021/07/08 07:37:49;;;;;;;;;;;;;;;-148.22;100.00;58358.63;4884917;29;1397;-84
2021/07/08 07:40:16;;;;;;;;;;;;;;;-148.22;100.00;58358.63;4884465;29;1471;-83
2021/07/08 07:42:59;;;;;;;;;;;;;;;-148.22;100.00;58358.63;4884777;29;1313;-84
2021/07/08 07:45:25;;;;;;;;;;;;;;;-148.22;100.00;58358.63;4884542;29;1184;-84
2021/07/08 07:48:01;;;;;;;;;;;;;;;-148.22;100.00;58358.63;4900390;29;1000;-83
2021/07/08 07:50:36;;;;;;;;;;;;;;;-148.22;100.00;58358.63;4884442;29;2000;-83
2021/07/08 07:53:13;;;;;;;;;;;;;;;-148.22;100.00;58358.63;4928903;28;1359;-83
2021/07/08 07:58:42;;;;;;;;;;;;;;;-148.22;100.00;58358.63;4978405;28;626;-83
2021/07/08 08:01:25;;;;;;;;;;;;;;;-148.22;100.00;58358.63;4978362;28;1241;-83
2021/07/08 08:03:50;;;;;;;;;;;;;;;-148.22;100.00;58358.63;4982602;23;1584;-83
2021/07/08 08:09:01;;;;;;;;;;;;;;;-148.22;100.00;58358.63;4997735;28;590;-83
2021/07/08 08:11:27;;;;;;;;;;;;;;;-148.22;100.00;58358.63;4971565;28;1989;-83
2021/07/08 08:13:59;;;;;;;;;;;;;;;-148.22;100.00;58358.63;4979640;28;1853;-83
2021/07/08 08:16:35;;;;;;;;;;;;;;;-148.22;100.00;58358.63;4979861;28;1280;-83
2021/07/08 08:19:27;;;;;;;;;;;;;;;-148.22;100.00;58358.63;4994876;28;1392;-82
2021/07/08 08:21:54;;;;;;;;;;;;;;;-148.22;100.00;58358.63;4997579;28;1026;-83
2021/07/08 08:24:25;;;;;;;;;;;;;;;-148.22;100.00;58358.63;4974839;28;1268;-82
2021/07/08 08:27:03;;;;;;;;;;;;;;;-148.22;100.00;58358.63;4960557;28;1249;-82
2021/07/08 08:29:40;;;;;;;;;;;;;;;-148.22;100.00;58358.63;4960341;28;1887;-83
2021/07/08 08:32:14;;;;;;;;;;;;;;;-148.22;100.00;58358.63;4960564;28;1228;-83
2021/07/08 08:34:40;;;;;;;;;;;;;;;-148.22;100.00;58358.63;4977650;28;784;-82
2021/07/08 08:37:07;;;;;;;;;;;;;;;-148.22;100.00;58358.63;4960233;28;1297;-82
2021/07/08 08:39:36;;;;;;;;;;;;;;;-148.22;100.00;58358.63;4960485;28;1301;-84
2021/07/08 08:42:11;;;;;;;;;;;;;;;-148.22;100.00;58358.63;4976245;28;1057;-83
2021/07/08 08:44:37;;;;;;;;;;;;;;;-148.22;100.00;58358.63;4960012;28;856;-82
2021/07/08 08:47:06;;;;;;;;;;;;;;;-148.22;100.00;58358.63;4991844;28;1505;-82
2021/07/08 08:49:31;;;;;;;;;;;;;;;-148.22;100.00;58358.63;4979448;28;1882;-83
2021/07/08 08:51:57;;;;;;;;;;;;;;;-148.22;100.00;58358.63;4996877;28;862;-82
2021/07/08 08:54:41;;;;;;;;;;;;;;;-148.22;100.00;58358.63;4996575;28;1591;-83
2021/07/08 08:57:07;;;;;;;;;;;;;;;-148.22;100.00;58358.63;4979088;28;1232;-82
2021/07/08 08:59:36;;;;;;;;;;;;;;;-148.22;100.00;58358.63;4996224;28;1600;-82
2021/07/08 09:02:10;;;;;;;;;;;;;;;-148.22;100.00;58358.63;4996609;28;819;-81
2021/07/08 09:04:35;;;;;;;;;;;;;;;-148.22;100.00;58358.63;4978384;28;1517;-82
2021/07/08 09:07:19;;;;;;;;;;;;;;;-148.22;100.00;58358.63;4979568;28;1229;-82
2021/07/08 09:09:45;;;;;;;;;;;;;;;-148.22;100.00;58358.63;4978892;28;1965;-81
2021/07/08 09:12:13;;;;;;;;;;;;;;;-148.22;100.00;58358.63;4978853;28;1154;-81
2021/07/08 09:14:39;;;;;;;;;;;;;;;-148.22;100.00;58358.63;4962014;28;1348;-82
2021/07/08 09:17:16;;;;;;;;;;;;;;;-148.22;100.00;58358.63;4979625;28;1410;-86
2021/07/08 09:20:04;;;;;;;;;;;;;;;-148.22;100.00;58358.63;4978623;28;1339;-81
2021/07/08 09:23:00;;;;;;;;;;;;;;;-148.22;100.00;58358.63;4959469;28;1053;-81
2021/07/08 09:25:47;;;;;;;;;;;;;;;-148.22;100.00;58358.63;4981748;28;1418;-82
2021/07/08 09:28:20;;;;;;;;;;;;;;;-148.22;100.00;58358.63;4995998;28;1544;-81
2021/07/08 09:30:54;;;;;;;;;;;;;;;-148.22;100.00;58358.63;4978715;28;1895;-82
2021/07/08 09:33:33;;;;;;;;;;;;;;;-148.22;100.00;58358.63;4978683;28;1181;-82
2021/07/08 09:36:10;;;;;;;;;;;;;;;-148.22;100.00;58358.63;4959447;28;1314;-83
2021/07/08 09:38:44;;;;;;;;;;;;;;;-148.22;100.00;58358.63;4976743;28;854;-82
2021/07/08 09:41:24;;;;;;;;;;;;;;;-148.22;100.00;58358.63;4959492;28;1184;-82
2021/07/08 09:44:00;;;;;;;;;;;;;;;-148.22;100.00;58358.63;4959603;28;1217;-83
2021/07/08 09:46:36;;;;;;;;;;;;;;;-148.22;100.00;58358.63;4959256;28;1422;-82
2021/07/08 09:49:08;;;;;;;;;;;;;;;-148.22;100.00;58358.63;4959236;28;1285;-82
2021/07/08 09:51:35;;;;;;;;;;;;;;;-148.22;100.00;58358.63;4959243;28;1946;-82
2021/07/08 09:54:10;;;;;;;;;;;;;;;-148.22;100.00;58358.63;4971358;28;1546;-82
2021/07/08 09:56:59;;;;;;;;;;;;;;;-148.22;100.00;58358.63;4996119;28;882;-81
2021/07/08 09:59:33;;;;;;;;;;;;;;;-148.22;100.00;58358.63;4995279;28;1607;-81
2021/07/08 10:02:05;;;;;;;;;;;;;;;-148.22;100.00;58358.63;4978456;28;1295;-80
2021/07/08 10:04:30;;;;;;;;;;;;;;;-148.22;100.00;58358.63;4975147;28;1330;-80
2021/07/08 10:06:57;;;;;;;;;;;;;;;-148.22;100.00;58358.63;4975191;28;1156;-80
2021/07/08 10:09:33;;;;;;;;;;;;;;;-148.22;100.00;58358.63;4976439;28;1915;-81
2021/07/08 10:11:58;;;;;;;;;;;;;;;-148.22;100.00;58358.63;4975074;28;1580;-81
2021/07/08 10:14:44;;;;;;;;;;;;;;;-148.22;100.00;58358.63;4975158;28;1313;-81
2021/07/08 10:17:13;;;;;;;;;;;;;;;-148.22;100.00;58358.63;4974899;28;1153;-80
2021/07/08 10:19:52;;;;;;;;;;;;;;;-148.22;100.00;58358.63;4976344;28;1162;-80
2021/07/08 10:22:20;;;;;;;;;;;;;;;-148.22;100.00;58358.63;4974993;28;1321;-80
2021/07/08 10:24:54;;;;;;;;;;;;;;;-148.22;100.00;58358.63;4960521;28;1552;-80
2021/07/08 10:27:21;;;;;;;;;;;;;;;-148.22;100.00;58358.63;4957046;29;859;-80
2021/07/08 10:29:53;;;;;;;;;;;;;;;-148.22;100.00;58358.63;4955859;28;1894;-80
2021/07/08 10:32:20;;;;;;;;;;;;;;;-148.22;100.00;58358.63;4959153;29;1286;-80
2021/07/08 10:34:47;;;;;;;;;;;;;;;-148.22;100.00;58358.63;4960556;29;780;-81
2021/07/08 10:37:29;;;;;;;;;;;;;;;-148.22;100.00;58358.63;4958990;29;1314;-80
2021/07/08 10:40:06;;;;;;;;;;;;;;;-148.22;100.00;58358.63;4959143;28;1555;-80
2021/07/08 10:42:50;;;;;;;;;;;;;;;-148.22;100.00;58358.63;4960296;29;839;-80
2021/07/08 10:45:22;;;;;;;;;;;;;;;-148.22;100.00;58358.63;4960320;29;776;-80
2021/07/08 10:48:07;;;;;;;;;;;;;;;-148.22;100.00;58358.63;4959057;29;1205;-80
2021/07/08 10:50:39;;;;;;;;;;;;;;;-148.22;100.00;58358.63;4958887;29;1890;-80
2021/07/08 10:53:41;;;;;;;;;;;;;;;-148.22;100.00;58358.63;4958778;29;1213;-80
2021/07/08 10:56:09;;;;;;;;;;;;;;;-148.22;100.00;58358.63;4960141;29;919;-80
2021/07/08 10:58:34;;;;;;;;;;;;;;;-148.22;100.00;58358.63;4959063;28;1398;-81
2021/07/08 11:01:01;;;;;;;;;;;;;;;-148.22;100.00;58358.63;4960208;29;991;-81
2021/07/08 11:03:48;;;;;;;;;;;;;;;-148.22;100.00;58358.63;4957434;29;1150;-81
2021/07/08 11:06:14;;;;;;;;;;;;;;;-148.22;100.00;58358.63;4958752;29;1303;-81
2021/07/08 11:09:08;;;;;;;;;;;;;;;-148.22;100.00;58358.63;4960034;29;846;-81
2021/07/08 11:11:50;;;;;;;;;;;;;;;-148.22;100.00;58358.63;4958938;29;2000;-83
2021/07/08 11:14:28;;;;;;;;;;;;;;;-148.22;100.00;58358.63;4959776;29;792;-82
2021/07/08 11:17:13;;;;;;;;;;;;;;;-148.22;100.00;58358.63;4959687;29;792;-81
2021/07/08 11:19:47;;;;;;;;;;;;;;;-148.22;100.00;58358.63;4958536;29;1326;-81
2021/07/08 11:22:43;;;;;;;;;;;;;;;-148.22;100.00;58358.63;4958279;29;1174;-83
2021/07/08 11:25:09;;;;;;;;;;;;;;;-148.22;100.00;58358.63;4919466;29;1073;-81
2021/07/08 11:27:37;;;;;;;;;;;;;;;-148.22;100.00;58358.63;4901666;29;955;-82
2021/07/08 11:30:36;;;;;;;;;;;;;;;-148.22;100.00;58358.63;4881408;29;1882;-83
2021/07/08 11:33:18;;;;;;;;;;;;;;;-148.22;100.00;58358.63;4900406;29;1209;-82
2021/07/08 11:35:57;;;;;;;;;;;;;;;-148.22;100.00;58358.63;4886232;29;1338;-82
2021/07/08 11:38:29;;;;;;;;;;;;;;;-148.22;100.00;58358.63;4885782;29;1627;-82
2021/07/08 11:40:57;;;;;;;;;;;;;;;-148.22;100.00;58358.63;4881545;29;1195;-83
2021/07/08 11:43:58;;;;;;;;;;;;;;;-148.22;100.00;58358.63;4899097;29;1552;-82
2021/07/08 11:46:24;;;;;;;;;;;;;;;-148.22;100.00;58358.63;4900174;29;1073;-85
2021/07/08 11:49:09;;;;;;;;;;;;;;;-148.22;100.00;58358.63;4909809;29;1210;-85
2021/07/08 11:51:43;;;;;;;;;;;;;;;-148.22;100.00;58358.63;4909298;29;1952;-83
2021/07/08 11:54:17;;;;;;;;;;;;;;;-148.22;100.00;58358.63;4884525;29;1374;-83
2021/07/08 11:56:54;;;;;;;;;;;;;;;-148.22;100.00;58358.63;4900197;29;891;-84
2021/07/08 11:59:20;;;;;;;;;;;;;;;-148.22;100.00;58358.63;4899984;29;797;-83
2021/07/08 12:02:20;;;;;;;;;;;;;;;-148.22;100.00;58358.63;4928896;29;1348;-80
2021/07/08 12:04:45;;;;;;;;;;;;;;;-148.22;100.00;58358.63;4914079;29;1417;-78
2021/07/08 12:07:19;;;;;;;;;;;;;;;-148.22;100.00;58358.63;4937479;29;877;-79
2021/07/08 12:09:46;;;;;;;;;;;;;;;-148.22;100.00;58358.63;4937239;29;1918;-78
2021/07/08 12:12:41;;;;;;;;;;;;;;;-148.22;100.00;58358.63;4937393;29;827;-78
2021/07/08 12:15:06;;;;;;;;;;;;;;;-148.22;100.00;58358.63;4899522;29;1065;-79
2021/07/08 12:17:33;;;;;;;;;;;;;;;-148.22;100.00;58358.63;4883466;29;1225;-79
2021/07/08 12:20:08;;;;;;;;;;;;;;;-148.22;100.00;58358.63;4899324;29;1021;-78
2021/07/08 12:22:35;;;;;;;;;;;;;;;-148.22;100.00;58358.63;4899287;29;720;-77
2021/07/08 12:25:11;;;;;;;;;;;;;;;-148.22;100.00;58358.63;4899333;29;1136;-78
2021/07/08 12:27:38;;;;;;;;;;;;;;;-148.22;100.00;58358.63;4899337;29;1067;-77
2021/07/08 12:30:03;;;;;;;;;;;;;;;-148.22;100.00;58358.63;4899227;29;1883;-77
2021/07/08 12:32:28;;;;;;;;;;;;;;;-148.22;100.00;58358.63;4898994;29;995;-77
2021/07/08 12:34:57;;;;;;;;;;;;;;;-148.22;100.00;58358.63;4899031;29;1029;-78
2021/07/08 12:37:31;;;;;;;;;;;;;;;-148.22;100.00;58358.63;4899046;29;951;-78
2021/07/08 12:40:25;;;;;;;;;;;;;;;-148.22;100.00;58358.63;4905745;29;920;-77
2021/07/08 12:42:51;;;;;;;;;;;;;;;-148.22;100.00;58358.63;4917803;29;871;-78
2021/07/08 12:45:20;;;;;;;;;;;;;;;-148.22;100.00;58358.63;4917391;29;1412;-78
2021/07/08 12:47:50;;;;;;;;;;;;;;;-148.22;100.00;58358.63;4901931;29;1293;-77
2021/07/08 12:50:19;;;;;;;;;;;;;;;-148.22;100.00;58358.63;4917661;29;1894;-77
2021/07/08 12:52:49;;;;;;;;;;;;;;;-148.22;100.00;58358.63;4976970;28;1600;-79
2021/07/08 12:55:39;;;;;;;;;;;;;;;-148.22;100.00;58358.63;4956893;28;1805;-78
2021/07/08 12:58:26;;;;;;;;;;;;;;;-148.22;100.00;58358.63;4957806;29;874;-79